עמוד ראשי
METAR-TAF:

METAR-TAF

שדות תעופה :

Fort Yukon, אלסקה, ארצות הברית

קו רוחב: 66-34N, קו אורך: 145-16W, גובה: 433מטר

תצפית מזג אוויר נוכחית

הדו"ח נערך לפני 18דקות, בשעה 17:56 UTC
רוח רגועה
טמפרטורת 19 צלסיוס
לחות 56%
לחץ 1020 hPa
ראות: 16.1קילומטר
שמיים נקיים

METAR: PFYU 151756Z 00000KT 10SM CLR 19/10 A3012 RMK AO2 SLP206 T01890100 10189 20117 53002

זמן: 10:14 (18:14 UTC)


TAF: חסר

תצפיות ותחזיות מזג אוויר לגבי יותר מ- 4,000 שדות תעופה ברחבי העולם. דוחות METAR ו- TAF.

התחנות הזמינות מסומנות בנקודות צהובות ואדומות על גבי המפה.

העבר את העכבר לנקודה הצבעונית על מנת לראות את שם התחנה.

לאחר מכן, לחץ כדי לראות את תוכן ואת תחזיות מזג האוויר.

כדי לשנות את המפה: לחץ על הכפתורים הירוקים עם הפלוס השחור כדי להתקרב; על הכפתור הירוק עם המקף כדי להתרחק; או בחיצים הירוקים למפות סמוכות.


METAR-TAF: